createdAt,value
2022-11-29T00:00:57.673Z,1002.2
2022-11-29T00:02:14.001Z,1002.2
2022-11-29T00:03:30.306Z,1002.2
2022-11-29T00:04:46.556Z,1002.2
2022-11-29T00:06:01.869Z,1002.2
2022-11-29T00:07:18.184Z,1002.2
2022-11-29T00:08:34.464Z,1002.2
2022-11-29T00:09:50.751Z,1002.2
2022-11-29T00:11:07.045Z,1002.2
2022-11-29T00:12:23.335Z,1002.2
2022-11-29T00:13:39.656Z,1002.2
2022-11-29T00:14:55.927Z,1002.2
2022-11-29T00:16:12.215Z,1002.2
2022-11-29T00:17:28.538Z,1002.2
2022-11-29T00:18:44.838Z,1002.2
2022-11-29T00:20:01.095Z,1002.2
2022-11-29T00:21:17.393Z,1002.1
2022-11-29T00:22:32.727Z,1002.1
2022-11-29T00:23:49.007Z,1002.1
2022-11-29T00:25:05.282Z,1002.1
2022-11-29T00:26:21.609Z,1002.1
2022-11-29T00:27:37.872Z,1002.1
2022-11-29T00:28:54.180Z,1002.1
2022-11-29T00:30:09.484Z,1002.1
2022-11-29T00:31:25.781Z,1002.2
2022-11-29T00:32:42.108Z,1002.1
2022-11-29T00:33:58.400Z,1002.1
2022-11-29T00:35:14.668Z,1002.1
2022-11-29T00:36:30.977Z,1002.1
2022-11-29T00:37:47.247Z,1002.1
2022-11-29T00:39:03.538Z,1002.1
2022-11-29T00:40:19.825Z,1002.1
2022-11-29T00:41:36.152Z,1002.1
2022-11-29T00:42:52.445Z,1002.1
2022-11-29T00:44:08.744Z,1002.1
2022-11-29T00:45:25.005Z,1002.2
2022-11-29T00:46:40.327Z,1002.1
2022-11-29T00:47:56.642Z,1002.2
2022-11-29T00:49:12.933Z,1002.1
2022-11-29T00:50:29.226Z,1002.2
2022-11-29T00:51:45.501Z,1002.1
2022-11-29T00:53:01.807Z,1002.2
2022-11-29T00:54:18.076Z,1002.2
2022-11-29T00:55:34.397Z,1002.1
2022-11-29T00:56:50.661Z,1002.1
2022-11-29T00:58:06.963Z,1002.1
2022-11-29T00:59:23.289Z,1002.2
2022-11-29T01:00:39.569Z,1002.1
2022-11-29T01:01:55.845Z,1002.1
2022-11-29T01:03:11.148Z,1002.1
2022-11-29T01:04:27.433Z,1002.1
2022-11-29T01:05:43.767Z,1002.1
2022-11-29T01:07:00.033Z,1002.1
2022-11-29T01:08:16.348Z,1002.1
2022-11-29T01:09:32.623Z,1002.1
2022-11-29T01:10:48.912Z,1002.1
2022-11-29T01:12:05.209Z,1002.1
2022-11-29T01:13:21.516Z,1002.2
2022-11-29T01:14:37.780Z,1002.1
2022-11-29T01:15:54.074Z,1002.1
2022-11-29T01:17:10.372Z,1002.1
2022-11-29T01:18:26.690Z,1002.1
2022-11-29T01:19:41.976Z,1002.1
2022-11-29T01:20:58.264Z,1002.1
2022-11-29T01:22:14.572Z,1002.1
2022-11-29T01:23:30.868Z,1002.2
2022-11-29T01:24:47.163Z,1002.1
2022-11-29T01:26:03.447Z,1002.2
2022-11-29T01:27:19.761Z,1002.2
2022-11-29T01:28:36.066Z,1002.2
2022-11-29T01:29:52.333Z,1002.2
2022-11-29T01:31:08.647Z,1002.2
2022-11-29T01:32:24.909Z,1002.2
2022-11-29T01:33:41.211Z,1002.2
2022-11-29T01:34:57.526Z,1002.2
2022-11-29T01:36:12.811Z,1002.2
2022-11-29T01:37:29.129Z,1002.2
2022-11-29T01:38:45.420Z,1002.2
2022-11-29T01:40:01.686Z,1002.2
2022-11-29T01:41:17.992Z,1002.2
2022-11-29T01:42:34.303Z,1002.2
2022-11-29T01:43:50.567Z,1002.2
2022-11-29T01:45:06.863Z,1002.3
2022-11-29T01:46:23.190Z,1002.2
2022-11-29T01:47:39.451Z,1002.2
2022-11-29T01:48:55.738Z,1002.2
2022-11-29T01:50:12.038Z,1002.2
2022-11-29T01:51:28.370Z,1002.2
2022-11-29T01:52:43.640Z,1002.2
2022-11-29T01:53:59.959Z,1002.2
2022-11-29T01:55:16.233Z,1002.2
2022-11-29T01:56:32.524Z,1002.2
2022-11-29T01:57:48.849Z,1002.2
2022-11-29T01:59:05.105Z,1002.2
2022-11-29T02:00:21.409Z,1002.2
2022-11-29T02:01:37.701Z,1002.2
2022-11-29T02:02:53.993Z,1002.2
2022-11-29T02:04:10.311Z,1002.3
2022-11-29T02:05:26.605Z,1002.2
2022-11-29T02:06:42.898Z,1002.2
2022-11-29T02:07:59.167Z,1002.2
2022-11-29T02:09:14.467Z,1002.2
2022-11-29T02:10:30.772Z,1002.2
2022-11-29T02:11:47.060Z,1002.2
2022-11-29T02:13:03.391Z,1002.2
2022-11-29T02:14:19.681Z,1002.2
2022-11-29T02:15:35.936Z,1002.2
2022-11-29T02:16:52.235Z,1002.2
2022-11-29T02:18:08.534Z,1002.2
2022-11-29T02:19:24.853Z,1002.3
2022-11-29T02:20:41.146Z,1002.3
2022-11-29T02:21:57.406Z,1002.2
2022-11-29T02:23:13.706Z,1002.3
2022-11-29T02:24:29.994Z,1002.3
2022-11-29T02:25:45.302Z,1002.2
2022-11-29T02:27:01.621Z,1002.3
2022-11-29T02:28:17.886Z,1002.3
2022-11-29T02:29:34.212Z,1002.3
2022-11-29T02:30:50.481Z,1002.3
2022-11-29T02:32:06.804Z,1002.3
2022-11-29T02:33:23.076Z,1002.3
2022-11-29T02:34:39.390Z,1002.3
2022-11-29T02:35:55.645Z,1002.3
2022-11-29T02:37:11.959Z,1002.3
2022-11-29T02:38:28.271Z,1002.3
2022-11-29T02:39:44.567Z,1002.3
2022-11-29T02:41:00.836Z,1002.3
2022-11-29T02:42:16.137Z,1002.3
2022-11-29T02:43:32.429Z,1002.3
2022-11-29T02:44:48.720Z,1002.3
2022-11-29T02:46:05.023Z,1002.3
2022-11-29T02:47:21.343Z,1002.3
2022-11-29T02:48:37.594Z,1002.3
2022-11-29T02:49:53.898Z,1002.3
2022-11-29T02:51:10.186Z,1002.3
2022-11-29T02:52:26.477Z,1002.3
2022-11-29T02:53:42.789Z,1002.4
2022-11-29T02:54:59.109Z,1002.3
2022-11-29T02:56:15.372Z,1002.3
2022-11-29T02:57:31.653Z,1002.4
2022-11-29T02:58:46.989Z,1002.4
2022-11-29T03:00:03.293Z,1002.3
2022-11-29T03:01:19.561Z,1002.4
2022-11-29T03:02:35.840Z,1002.4
2022-11-29T03:03:52.147Z,1002.4
2022-11-29T03:05:08.424Z,1002.4
2022-11-29T03:06:24.733Z,1002.4
2022-11-29T03:07:41.043Z,1002.4
2022-11-29T03:08:57.324Z,1002.4
2022-11-29T03:10:13.639Z,1002.4
2022-11-29T03:11:29.900Z,1002.4
2022-11-29T03:12:46.221Z,1002.4
2022-11-29T03:14:02.518Z,1002.4
2022-11-29T03:15:17.826Z,1002.4
2022-11-29T03:16:34.087Z,1002.4
2022-11-29T03:17:50.387Z,1002.4
2022-11-29T03:19:06.668Z,1002.4
2022-11-29T03:20:22.996Z,1002.4
2022-11-29T03:21:39.266Z,1002.4
2022-11-29T03:22:55.559Z,1002.4
2022-11-29T03:24:11.858Z,1002.5
2022-11-29T03:25:28.181Z,1002.5
2022-11-29T03:26:44.442Z,1002.5
2022-11-29T03:28:00.755Z,1002.5
2022-11-29T03:29:17.063Z,1002.5
2022-11-29T03:30:33.348Z,1002.5
2022-11-29T03:31:48.632Z,1002.5
2022-11-29T03:33:04.926Z,1002.6
2022-11-29T03:34:21.208Z,1002.6
2022-11-29T03:35:37.515Z,1002.5
2022-11-29T03:36:53.808Z,1002.6
2022-11-29T03:38:10.121Z,1002.5
2022-11-29T03:39:26.379Z,1002.6
2022-11-29T03:40:42.714Z,1002.6
2022-11-29T03:41:58.973Z,1002.6
2022-11-29T03:43:15.264Z,1002.5
2022-11-29T03:44:31.555Z,1002.5
2022-11-29T03:45:47.881Z,1002.6
2022-11-29T03:47:04.157Z,1002.5
2022-11-29T03:48:19.462Z,1002.5
2022-11-29T03:49:35.744Z,1002.5
2022-11-29T03:50:52.036Z,1002.5
2022-11-29T03:52:08.333Z,1002.5
2022-11-29T03:53:24.669Z,1002.5
2022-11-29T03:54:40.948Z,1002.5
2022-11-29T03:55:57.214Z,1002.5
2022-11-29T03:57:13.513Z,1002.5
2022-11-29T03:58:29.801Z,1002.5
2022-11-29T03:59:46.101Z,1002.5
2022-11-29T04:01:02.420Z,1002.5
2022-11-29T04:02:18.710Z,1002.5
2022-11-29T04:03:34.975Z,1002.6
2022-11-29T04:04:50.295Z,1002.6
2022-11-29T04:06:06.578Z,1002.5
2022-11-29T04:07:22.885Z,1002.6
2022-11-29T04:08:39.164Z,1002.6
2022-11-29T04:09:55.470Z,1002.6
2022-11-29T04:11:11.782Z,1002.6
2022-11-29T04:12:28.054Z,1002.6
2022-11-29T04:13:44.343Z,1002.6
2022-11-29T04:15:00.630Z,1002.6
2022-11-29T04:16:16.964Z,1002.6
2022-11-29T04:17:33.226Z,1002.6
2022-11-29T04:18:49.511Z,1002.6
2022-11-29T04:20:05.832Z,1002.6
2022-11-29T04:21:21.145Z,1002.6
2022-11-29T04:22:37.438Z,1002.6
2022-11-29T04:23:53.738Z,1002.6
2022-11-29T04:25:10.026Z,1002.6
2022-11-29T04:26:26.320Z,1002.6
2022-11-29T04:27:42.610Z,1002.6
2022-11-29T04:28:58.897Z,1002.6
2022-11-29T04:30:15.192Z,1002.6
2022-11-29T04:31:31.504Z,1002.6
2022-11-29T04:32:47.788Z,1002.6
2022-11-29T04:34:04.086Z,1002.6
2022-11-29T04:35:20.379Z,1002.6
2022-11-29T04:36:36.657Z,1002.6
2022-11-29T04:37:51.975Z,1002.7
2022-11-29T04:39:08.263Z,1002.6
2022-11-29T04:40:24.565Z,1002.7
2022-11-29T04:41:40.849Z,1002.7
2022-11-29T04:42:57.160Z,1002.7
2022-11-29T04:44:13.442Z,1002.7
2022-11-29T04:45:28.764Z,1002.7
2022-11-29T04:46:45.045Z,1002.7
2022-11-29T04:48:01.342Z,1002.7
2022-11-29T04:49:17.640Z,1002.7
2022-11-29T04:50:33.931Z,1002.7
2022-11-29T04:51:50.219Z,1002.8
2022-11-29T04:53:06.512Z,1002.7
2022-11-29T04:54:22.814Z,1002.8
2022-11-29T04:55:39.107Z,1002.8
2022-11-29T04:56:55.394Z,1002.8
2022-11-29T04:58:11.702Z,1002.8
2022-11-29T04:59:27.989Z,1002.8
2022-11-29T05:00:44.287Z,1002.8
2022-11-29T05:01:59.601Z,1002.8
2022-11-29T05:03:15.898Z,1002.9
2022-11-29T05:04:32.185Z,1002.8
2022-11-29T05:05:48.460Z,1002.8
2022-11-29T05:07:04.758Z,1002.9
2022-11-29T05:08:21.053Z,1002.9
2022-11-29T05:09:37.359Z,1002.9
2022-11-29T05:10:53.643Z,1002.9
2022-11-29T05:12:09.929Z,1002.8
2022-11-29T05:13:26.235Z,1002.9
2022-11-29T05:14:42.521Z,1002.9
2022-11-29T05:15:58.819Z,1002.9
2022-11-29T05:17:15.118Z,1002.9
2022-11-29T05:18:30.414Z,1002.9
2022-11-29T05:19:46.000Z,1002.9
2022-11-29T05:21:02.997Z,1002.9
2022-11-29T05:22:19.291Z,1003
2022-11-29T05:23:35.585Z,1003
2022-11-29T05:24:51.885Z,1003
2022-11-29T05:26:08.190Z,1003
2022-11-29T05:27:24.472Z,1003
2022-11-29T05:28:40.778Z,1003
2022-11-29T05:29:57.054Z,1003
2022-11-29T05:31:13.356Z,1003
2022-11-29T05:32:29.655Z,1003
2022-11-29T05:33:45.951Z,1003
2022-11-29T05:35:01.259Z,1003
2022-11-29T05:36:17.547Z,1003.1
2022-11-29T05:37:33.852Z,1003.1
2022-11-29T05:38:50.122Z,1003.1
2022-11-29T05:40:06.421Z,1003.1
2022-11-29T05:41:22.724Z,1003.1
2022-11-29T05:42:39.009Z,1003.1
2022-11-29T05:43:55.312Z,1003.1
2022-11-29T05:45:11.600Z,1003.1
2022-11-29T05:46:27.890Z,1003.1
2022-11-29T05:47:44.185Z,1003.1
2022-11-29T05:49:00.472Z,1003.1
2022-11-29T05:50:16.772Z,1003.1
2022-11-29T05:51:32.079Z,1003.2
2022-11-29T05:52:48.368Z,1003.2
2022-11-29T05:54:04.660Z,1003.2
2022-11-29T05:55:20.970Z,1003.2
2022-11-29T05:56:37.255Z,1003.2
2022-11-29T05:57:53.553Z,1003.2
2022-11-29T05:59:09.852Z,1003.2
2022-11-29T06:00:26.129Z,1003.2
2022-11-29T06:01:42.432Z,1003.3
2022-11-29T06:02:58.723Z,1003.2
2022-11-29T06:04:15.010Z,1003.3
2022-11-29T06:05:31.301Z,1003.3
2022-11-29T06:06:47.604Z,1003.3
2022-11-29T06:08:02.916Z,1003.3
2022-11-29T06:09:19.217Z,1003.3
2022-11-29T06:10:35.490Z,1003.4
2022-11-29T06:11:51.788Z,1003.3
2022-11-29T06:13:08.085Z,1003.4
2022-11-29T06:14:24.384Z,1003.3
2022-11-29T06:15:40.670Z,1003.4
2022-11-29T06:16:56.965Z,1003.4
2022-11-29T06:18:13.266Z,1003.4
2022-11-29T06:19:29.560Z,1003.3
2022-11-29T06:20:45.841Z,1003.4
2022-11-29T06:22:02.082Z,1003.4
2022-11-29T06:23:18.388Z,1003.4
2022-11-29T06:24:33.688Z,1003.4
2022-11-29T06:25:49.942Z,1003.4
2022-11-29T06:27:06.175Z,1003.4
2022-11-29T06:28:22.438Z,1003.4
2022-11-29T06:29:38.679Z,1003.5
2022-11-29T06:30:54.928Z,1003.4
2022-11-29T06:32:11.167Z,1003.5
2022-11-29T06:33:27.401Z,1003.5
2022-11-29T06:34:43.634Z,1003.5
2022-11-29T06:35:59.880Z,1003.5
2022-11-29T06:37:16.116Z,1003.5
2022-11-29T06:38:32.364Z,1003.5
2022-11-29T06:39:48.610Z,1003.5
2022-11-29T06:41:03.846Z,1003.5
2022-11-29T06:42:20.096Z,1003.6
2022-11-29T06:43:36.327Z,1003.6
2022-11-29T06:44:52.569Z,1003.6
2022-11-29T06:46:08.819Z,1003.6
2022-11-29T06:47:25.049Z,1003.6
2022-11-29T06:48:41.292Z,1003.6
2022-11-29T06:49:57.522Z,1003.6
2022-11-29T06:51:13.776Z,1003.6
2022-11-29T06:52:30.014Z,1003.6
2022-11-29T06:53:46.000Z,1003.6
2022-11-29T06:55:02.492Z,1003.6
2022-11-29T06:56:18.733Z,1003.7
2022-11-29T06:57:33.983Z,1003.6
2022-11-29T06:58:50.240Z,1003.6
2022-11-29T07:00:06.474Z,1003.7
2022-11-29T07:01:22.707Z,1003.7
2022-11-29T07:02:38.946Z,1003.7
2022-11-29T07:03:55.177Z,1003.7
2022-11-29T07:05:11.423Z,1003.7
2022-11-29T07:06:27.665Z,1003.7
2022-11-29T07:07:43.895Z,1003.7
2022-11-29T07:09:00.138Z,1003.7
2022-11-29T07:10:16.390Z,1003.7
2022-11-29T07:11:32.635Z,1003.8
2022-11-29T07:12:48.870Z,1003.8
2022-11-29T07:14:04.123Z,1003.8
2022-11-29T07:15:20.360Z,1003.8
2022-11-29T07:16:36.594Z,1003.8
2022-11-29T07:17:52.829Z,1003.8
2022-11-29T07:19:09.065Z,1003.8
2022-11-29T07:20:25.315Z,1003.8
2022-11-29T07:21:41.552Z,1003.8
2022-11-29T07:22:57.802Z,1003.8
2022-11-29T07:24:14.029Z,1003.9
2022-11-29T07:25:30.272Z,1003.8
2022-11-29T07:26:46.503Z,1003.8
2022-11-29T07:28:02.000Z,1003.9
2022-11-29T07:29:19.000Z,1003.9
2022-11-29T07:30:34.242Z,1003.9
2022-11-29T07:31:50.481Z,1003.9
2022-11-29T07:33:06.736Z,1003.9
2022-11-29T07:34:22.973Z,1003.9
2022-11-29T07:35:39.194Z,1003.9
2022-11-29T07:36:55.456Z,1004
2022-11-29T07:38:11.689Z,1003.9
2022-11-29T07:39:27.920Z,1004
2022-11-29T07:40:44.156Z,1004
2022-11-29T07:42:00.395Z,1004
2022-11-29T07:43:16.635Z,1004
2022-11-29T07:44:32.875Z,1004
2022-11-29T07:45:49.131Z,1004
2022-11-29T07:47:04.365Z,1004
2022-11-29T07:48:20.610Z,1004
2022-11-29T07:49:36.853Z,1004.1
2022-11-29T07:50:53.096Z,1004
2022-11-29T07:52:09.323Z,1004.1
2022-11-29T07:53:25.571Z,1004.1
2022-11-29T07:54:41.814Z,1004.1
2022-11-29T07:55:58.043Z,1004.1
2022-11-29T07:57:14.290Z,1004.1
2022-11-29T07:58:30.532Z,1004.1
2022-11-29T07:59:46.772Z,1004.1
2022-11-29T08:01:03.011Z,1004.1
2022-11-29T08:02:19.245Z,1004.1
2022-11-29T08:03:34.500Z,1004.1
2022-11-29T08:04:50.737Z,1004.1
2022-11-29T08:06:06.977Z,1004.1
2022-11-29T08:07:23.224Z,1004.1
2022-11-29T08:08:39.465Z,1004.1
2022-11-29T08:09:55.698Z,1004.1
2022-11-29T08:11:11.935Z,1004.1
2022-11-29T08:12:28.176Z,1004.1
2022-11-29T08:13:44.411Z,1004.1
2022-11-29T08:15:00.646Z,1004.1
2022-11-29T08:16:16.900Z,1004.1
2022-11-29T08:17:33.133Z,1004.1
2022-11-29T08:18:49.385Z,1004.1
2022-11-29T08:20:04.636Z,1004.1
2022-11-29T08:21:20.870Z,1004.1
2022-11-29T08:22:37.111Z,1004.1
2022-11-29T08:23:53.352Z,1004.1
2022-11-29T08:25:09.592Z,1004.1
2022-11-29T08:26:25.832Z,1004.2
2022-11-29T08:27:42.065Z,1004.1
2022-11-29T08:28:58.304Z,1004.2
2022-11-29T08:30:14.554Z,1004.2
2022-11-29T08:31:30.785Z,1004.2
2022-11-29T08:32:47.030Z,1004.2
2022-11-29T08:34:03.256Z,1004.2
2022-11-29T08:35:19.511Z,1004.2
2022-11-29T08:36:34.761Z,1004.2
2022-11-29T08:37:51.012Z,1004.2
2022-11-29T08:39:07.230Z,1004.2
2022-11-29T08:40:23.485Z,1004.2
2022-11-29T08:41:39.731Z,1004.2
2022-11-29T08:42:55.961Z,1004.3
2022-11-29T08:44:12.186Z,1004.3
2022-11-29T08:45:28.433Z,1004.2
2022-11-29T08:46:44.675Z,1004.3
2022-11-29T08:48:00.918Z,1004.3
2022-11-29T08:49:17.152Z,1004.3
2022-11-29T08:50:33.400Z,1004.3
2022-11-29T08:51:49.636Z,1004.3
2022-11-29T08:53:04.894Z,1004.2
2022-11-29T08:54:21.129Z,1004.3
2022-11-29T08:55:37.365Z,1004.3
2022-11-29T08:56:53.615Z,1004.3
2022-11-29T08:58:09.849Z,1004.3
2022-11-29T08:59:26.085Z,1004.4
2022-11-29T09:00:41.336Z,1004.4
2022-11-29T09:01:57.590Z,1004.4
2022-11-29T09:03:13.832Z,1004.4
2022-11-29T09:04:30.073Z,1004.4
2022-11-29T09:05:46.297Z,1004.4
2022-11-29T09:07:02.547Z,1004.4
2022-11-29T09:08:18.778Z,1004.4
2022-11-29T09:09:35.012Z,1004.4
2022-11-29T09:10:51.257Z,1004.4
2022-11-29T09:12:07.505Z,1004.5
2022-11-29T09:13:23.755Z,1004.5
2022-11-29T09:14:39.989Z,1004.5
2022-11-29T09:15:56.215Z,1004.5
2022-11-29T09:17:12.569Z,1004.5
2022-11-29T09:18:28.821Z,1004.5
2022-11-29T09:19:45.056Z,1004.5
2022-11-29T09:21:01.302Z,1004.5
2022-11-29T09:22:17.526Z,1004.5
2022-11-29T09:23:33.784Z,1004.6
2022-11-29T09:24:50.016Z,1004.5
2022-11-29T09:26:06.257Z,1004.5
2022-11-29T09:27:22.503Z,1004.6
2022-11-29T09:28:38.729Z,1004.6
2022-11-29T09:29:54.968Z,1004.5
2022-11-29T09:31:11.218Z,1004.5
2022-11-29T09:32:27.459Z,1004.5
2022-11-29T09:33:42.714Z,1004.5
2022-11-29T09:34:58.949Z,1004.5
2022-11-29T09:36:15.192Z,1004.5
2022-11-29T09:37:31.426Z,1004.6
2022-11-29T09:38:47.670Z,1004.6
2022-11-29T09:40:03.897Z,1004.6
2022-11-29T09:41:20.148Z,1004.6
2022-11-29T09:42:36.381Z,1004.6
2022-11-29T09:43:52.633Z,1004.6
2022-11-29T09:45:08.853Z,1004.6
2022-11-29T09:46:25.103Z,1004.6
2022-11-29T09:47:41.338Z,1004.7
2022-11-29T09:48:57.585Z,1004.6
2022-11-29T09:50:12.827Z,1004.6
2022-11-29T09:51:29.074Z,1004.6
2022-11-29T09:52:45.315Z,1004.7
2022-11-29T09:54:01.555Z,1004.7
2022-11-29T09:55:17.795Z,1004.6
2022-11-29T09:56:34.049Z,1004.7
2022-11-29T09:57:50.274Z,1004.6
2022-11-29T09:59:06.505Z,1004.7
2022-11-29T10:00:22.743Z,1004.7
2022-11-29T10:01:38.992Z,1004.6
2022-11-29T10:02:55.234Z,1004.6
2022-11-29T10:04:11.481Z,1004.6
2022-11-29T10:05:27.714Z,1004.6
2022-11-29T10:06:44.063Z,1004.7
2022-11-29T10:08:00.303Z,1004.7
2022-11-29T10:09:16.541Z,1004.6
2022-11-29T10:10:32.792Z,1004.7
2022-11-29T10:11:49.034Z,1004.7
2022-11-29T10:13:05.264Z,1004.7
2022-11-29T10:14:21.522Z,1004.6
2022-11-29T10:15:37.743Z,1004.7
2022-11-29T10:16:54.001Z,1004.7
2022-11-29T10:18:10.232Z,1004.8
2022-11-29T10:19:26.468Z,1004.7
2022-11-29T10:20:42.694Z,1004.7
2022-11-29T10:21:58.943Z,1004.8
2022-11-29T10:23:14.197Z,1004.7
2022-11-29T10:24:30.440Z,1004.8
2022-11-29T10:25:46.672Z,1004.7
2022-11-29T10:27:02.919Z,1004.8
2022-11-29T10:28:19.150Z,1004.8
2022-11-29T10:29:35.385Z,1004.8
2022-11-29T10:30:51.636Z,1004.8
2022-11-29T10:32:07.876Z,1004.8
2022-11-29T10:33:24.119Z,1004.8
2022-11-29T10:34:40.344Z,1004.8
2022-11-29T10:35:56.591Z,1004.8
2022-11-29T10:37:12.833Z,1004.8
2022-11-29T10:38:29.064Z,1004.8
2022-11-29T10:39:44.330Z,1004.7
2022-11-29T10:41:00.557Z,1004.7
2022-11-29T10:42:16.797Z,1004.8
2022-11-29T10:43:33.046Z,1004.8
2022-11-29T10:44:49.275Z,1004.7
2022-11-29T10:46:05.530Z,1004.7
2022-11-29T10:47:21.767Z,1004.8
2022-11-29T10:48:37.999Z,1004.8
2022-11-29T10:49:54.245Z,1004.7
2022-11-29T10:51:10.485Z,1004.7
2022-11-29T10:52:26.713Z,1004.7
2022-11-29T10:53:42.961Z,1004.7
2022-11-29T10:54:59.198Z,1004.7
2022-11-29T10:56:14.457Z,1004.8
2022-11-29T10:57:30.697Z,1004.7
2022-11-29T10:58:46.925Z,1004.7
2022-11-29T11:00:03.165Z,1004.7
2022-11-29T11:01:19.412Z,1004.7
2022-11-29T11:02:35.654Z,1004.7
2022-11-29T11:03:51.890Z,1004.8
2022-11-29T11:05:08.131Z,1004.7
2022-11-29T11:06:24.367Z,1004.7
2022-11-29T11:07:40.618Z,1004.7
2022-11-29T11:08:56.853Z,1004.7
2022-11-29T11:10:13.107Z,1004.7
2022-11-29T11:11:29.335Z,1004.8
2022-11-29T11:12:45.558Z,1004.8
2022-11-29T11:14:01.943Z,1004.7
2022-11-29T11:15:18.176Z,1004.8
2022-11-29T11:16:34.399Z,1004.7
2022-11-29T11:17:50.649Z,1004.7
2022-11-29T11:19:06.878Z,1004.7
2022-11-29T11:20:23.128Z,1004.7
2022-11-29T11:21:39.366Z,1004.8
2022-11-29T11:22:55.616Z,1004.8
2022-11-29T11:24:11.838Z,1004.8
2022-11-29T11:25:28.080Z,1004.7
2022-11-29T11:26:44.316Z,1004.7
2022-11-29T11:28:00.554Z,1004.7
2022-11-29T11:29:16.805Z,1004.8
2022-11-29T11:30:33.058Z,1004.8
2022-11-29T11:31:48.299Z,1004.8
2022-11-29T11:33:04.551Z,1004.8
2022-11-29T11:34:20.778Z,1004.8
2022-11-29T11:35:37.020Z,1004.8
2022-11-29T11:36:53.246Z,1004.8
2022-11-29T11:38:09.509Z,1004.9
2022-11-29T11:39:25.743Z,1004.9
2022-11-29T11:40:41.972Z,1004.9
2022-11-29T11:41:58.211Z,1004.9
2022-11-29T11:43:14.460Z,1004.9
2022-11-29T11:44:30.683Z,1004.9
2022-11-29T11:45:46.923Z,1004.9
2022-11-29T11:47:03.171Z,1004.9
2022-11-29T11:48:18.429Z,1004.9
2022-11-29T11:49:34.669Z,1004.9
2022-11-29T11:50:50.908Z,1004.9
2022-11-29T11:52:07.138Z,1004.9
2022-11-29T11:53:23.389Z,1005
2022-11-29T11:55:55.860Z,1004.9
2022-11-29T11:57:12.103Z,1004.9
2022-11-29T11:58:28.334Z,1005
2022-11-29T11:59:44.589Z,1005
2022-11-29T12:01:00.822Z,1005
2022-11-29T12:02:17.065Z,1004.9
2022-11-29T12:03:33.307Z,1005
2022-11-29T12:04:48.547Z,1004.9
2022-11-29T12:06:04.798Z,1005
2022-11-29T12:07:21.030Z,1005
2022-11-29T12:08:37.272Z,1005
2022-11-29T12:09:53.501Z,1004.9
2022-11-29T12:11:09.742Z,1005
2022-11-29T12:12:25.987Z,1005
2022-11-29T12:13:42.232Z,1005
2022-11-29T12:14:58.474Z,1005
2022-11-29T12:16:14.709Z,1005
2022-11-29T12:17:30.936Z,1005.1
2022-11-29T12:18:47.193Z,1005.1
2022-11-29T12:20:03.419Z,1005.1
2022-11-29T12:21:18.670Z,1005.1
2022-11-29T12:22:34.927Z,1005.1
2022-11-29T12:23:51.166Z,1005.1
2022-11-29T12:25:07.399Z,1005.1
2022-11-29T12:26:23.629Z,1005
2022-11-29T12:27:39.881Z,1005
2022-11-29T12:28:56.112Z,1005.1
2022-11-29T12:30:12.367Z,1005.1
2022-11-29T12:31:28.595Z,1005.1
2022-11-29T12:32:44.841Z,1005.1
2022-11-29T12:34:01.076Z,1005.1
2022-11-29T12:35:17.310Z,1005
2022-11-29T12:36:33.565Z,1005.1
2022-11-29T12:37:48.803Z,1005.1
2022-11-29T12:39:05.047Z,1005.1
2022-11-29T12:40:21.278Z,1005.2
2022-11-29T12:41:37.520Z,1005.2
2022-11-29T12:42:53.766Z,1005.2
2022-11-29T12:44:10.004Z,1005.2
2022-11-29T12:45:26.250Z,1005.2
2022-11-29T12:46:42.479Z,1005.2
2022-11-29T12:47:58.724Z,1005.2
2022-11-29T12:49:14.964Z,1005.2
2022-11-29T12:50:31.203Z,1005.2
2022-11-29T12:51:47.444Z,1005.2
2022-11-29T12:53:03.679Z,1005.2
2022-11-29T12:54:18.955Z,1005.2
2022-11-29T12:55:35.169Z,1005.2
2022-11-29T12:56:51.422Z,1005.2
2022-11-29T12:58:07.658Z,1005.2
2022-11-29T12:59:23.892Z,1005.2
2022-11-29T13:00:40.139Z,1005.3
2022-11-29T13:01:56.375Z,1005.3
2022-11-29T13:03:12.609Z,1005.3
2022-11-29T13:04:28.850Z,1005.3
2022-11-29T13:05:45.091Z,1005.3
2022-11-29T13:07:01.330Z,1005.3
2022-11-29T13:08:17.571Z,1005.3
2022-11-29T13:09:33.813Z,1005.3
2022-11-29T13:10:49.063Z,1005.3
2022-11-29T13:12:05.311Z,1005.3
2022-11-29T13:13:21.536Z,1005.3
2022-11-29T13:14:37.801Z,1005.3
2022-11-29T13:15:53.038Z,1005.4
2022-11-29T13:17:09.286Z,1005.4
2022-11-29T13:18:25.512Z,1005.3
2022-11-29T13:19:41.760Z,1005.4
2022-11-29T13:20:57.997Z,1005.4
2022-11-29T13:22:14.237Z,1005.4
2022-11-29T13:23:30.491Z,1005.3
2022-11-29T13:24:46.721Z,1005.3
2022-11-29T13:26:02.959Z,1005.3
2022-11-29T13:27:19.187Z,1005.3
2022-11-29T13:28:35.435Z,1005.4
2022-11-29T13:29:51.674Z,1005.3
2022-11-29T13:31:07.000Z,1005.4
2022-11-29T13:32:23.183Z,1005.4
2022-11-29T13:33:39.412Z,1005.4
2022-11-29T13:34:55.661Z,1005.4
2022-11-29T13:36:11.897Z,1005.4
2022-11-29T13:37:28.125Z,1005.4
2022-11-29T13:38:44.360Z,1005.4
2022-11-29T13:40:00.623Z,1005.4
2022-11-29T13:41:16.847Z,1005.4
2022-11-29T13:42:33.079Z,1005.5
2022-11-29T13:43:49.327Z,1005.4
2022-11-29T13:45:05.561Z,1005.4
2022-11-29T13:46:21.808Z,1005.5
2022-11-29T13:47:38.059Z,1005.5
2022-11-29T13:48:53.303Z,1005.5
2022-11-29T13:50:09.545Z,1005.5
2022-11-29T13:51:25.773Z,1005.5
2022-11-29T13:52:42.029Z,1005.5
2022-11-29T13:53:58.261Z,1005.5
2022-11-29T13:55:14.502Z,1005.6
2022-11-29T13:56:30.734Z,1005.6
2022-11-29T13:57:46.981Z,1005.6
2022-11-29T13:59:03.208Z,1005.6
2022-11-29T14:00:19.450Z,1005.6
2022-11-29T14:01:35.690Z,1005.6
2022-11-29T14:02:51.944Z,1005.6
2022-11-29T14:04:08.173Z,1005.6
2022-11-29T14:05:23.438Z,1005.6
2022-11-29T14:06:39.670Z,1005.6
2022-11-29T14:07:55.911Z,1005.6
2022-11-29T14:09:12.151Z,1005.6
2022-11-29T14:10:28.383Z,1005.6
2022-11-29T14:11:44.637Z,1005.6
2022-11-29T14:13:00.874Z,1005.6
2022-11-29T14:14:17.100Z,1005.6
2022-11-29T14:15:33.357Z,1005.6
2022-11-29T14:16:49.597Z,1005.6
2022-11-29T14:18:05.829Z,1005.6
2022-11-29T14:19:22.066Z,1005.6
2022-11-29T14:20:38.313Z,1005.6
2022-11-29T14:21:53.569Z,1005.6
2022-11-29T14:23:09.802Z,1005.6
2022-11-29T14:24:26.046Z,1005.6
2022-11-29T14:25:42.271Z,1005.6
2022-11-29T14:26:58.524Z,1005.6
2022-11-29T14:28:14.749Z,1005.6
2022-11-29T14:29:30.998Z,1005.6
2022-11-29T14:30:47.238Z,1005.6
2022-11-29T14:32:03.494Z,1005.6
2022-11-29T14:33:19.731Z,1005.6
2022-11-29T14:34:35.958Z,1005.6
2022-11-29T14:35:52.200Z,1005.6
2022-11-29T14:37:08.444Z,1005.6
2022-11-29T14:38:23.688Z,1005.7
2022-11-29T14:39:39.926Z,1005.7
2022-11-29T14:40:56.177Z,1005.7
2022-11-29T14:42:12.414Z,1005.7
2022-11-29T14:43:28.652Z,1005.7
2022-11-29T14:44:44.888Z,1005.7
2022-11-29T14:46:01.121Z,1005.7
2022-11-29T14:47:17.388Z,1005.7
2022-11-29T14:48:33.612Z,1005.7
2022-11-29T14:49:49.843Z,1005.7
2022-11-29T14:51:06.102Z,1005.7
2022-11-29T14:52:22.326Z,1005.7
2022-11-29T14:53:38.568Z,1005.7
2022-11-29T14:54:53.834Z,1005.7
2022-11-29T14:56:10.054Z,1005.8
2022-11-29T14:57:26.306Z,1005.7
2022-11-29T14:58:42.543Z,1005.8
2022-11-29T14:59:58.770Z,1005.7
2022-11-29T15:01:15.023Z,1005.8
2022-11-29T15:02:31.266Z,1005.9
2022-11-29T15:03:47.493Z,1005.8
2022-11-29T15:05:03.743Z,1005.8
2022-11-29T15:06:19.976Z,1005.8
2022-11-29T15:07:36.212Z,1005.8
2022-11-29T15:08:52.463Z,1005.9
2022-11-29T15:10:08.689Z,1005.9
2022-11-29T15:11:23.956Z,1005.9
2022-11-29T15:12:40.190Z,1005.9
2022-11-29T15:13:56.429Z,1006
2022-11-29T15:15:12.665Z,1006
2022-11-29T15:16:28.930Z,1006
2022-11-29T15:17:45.166Z,1006
2022-11-29T15:19:01.409Z,1006
2022-11-29T15:20:17.696Z,1006
2022-11-29T15:21:33.997Z,1005.9
2022-11-29T15:22:50.230Z,1006
2022-11-29T15:24:06.482Z,1006
2022-11-29T15:25:22.716Z,1005.9
2022-11-29T15:26:39.013Z,1006
2022-11-29T15:27:54.311Z,1006
2022-11-29T15:29:10.611Z,1006
2022-11-29T15:30:26.890Z,1006
2022-11-29T15:31:43.183Z,1006
2022-11-29T15:32:59.495Z,1006.1
2022-11-29T15:34:15.773Z,1006.1
2022-11-29T15:35:32.078Z,1006.1
2022-11-29T15:36:48.375Z,1006.1
2022-11-29T15:38:04.651Z,1006.1
2022-11-29T15:39:20.942Z,1006.1
2022-11-29T15:40:37.249Z,1006.1
2022-11-29T15:41:53.543Z,1006.2
2022-11-29T15:43:09.830Z,1006.2
2022-11-29T15:44:25.141Z,1006.1
2022-11-29T15:45:41.429Z,1006.2
2022-11-29T15:46:57.724Z,1006.2
2022-11-29T15:48:14.037Z,1006.2
2022-11-29T15:49:30.329Z,1006.2
2022-11-29T15:50:46.614Z,1006.2
2022-11-29T15:52:02.897Z,1006.2
2022-11-29T15:53:19.194Z,1006.3
2022-11-29T15:54:35.487Z,1006.2
2022-11-29T15:55:51.785Z,1006.3